Time;durP1;ratioP1;P1;durP2;ratioP2;P2;SDS_P1;SDS_P2;PMS_P1;PMS_P2;Temp;Humidity;BMP_temperature;BMP_pressure;BME280_temperature;BME280_humidity;BME280_pressure;Samples;Min_cycle;Max_cycle;Signal;HPM_P1;HPM_P2
2022/05/20 00:01:04;;;;;;;14.15;8.07;;;;;;;14.52;100.00;97154.06;5046030;28;20048;-74
2022/05/20 00:03:31;;;;;;;12.50;7.28;;;;;;;14.61;100.00;97141.75;5044314;28;20556;-73
2022/05/20 00:05:58;;;;;;;11.43;7.20;;;;;;;14.64;100.00;97144.75;5042920;28;20041;-73
2022/05/20 00:08:23;;;;;;;14.60;7.00;;;;;;;14.69;100.00;97143.97;5045652;28;20056;-72
2022/05/20 00:10:53;;;;;;;14.63;8.02;;;;;;;14.67;100.00;97138.84;5044505;28;20036;-72
2022/05/20 00:13:24;;;;;;;14.25;8.15;;;;;;;14.65;100.00;97141.00;5043736;28;20400;-76
2022/05/20 00:15:50;;;;;;;12.75;9.27;;;;;;;14.57;100.00;97136.06;5044715;28;20044;-73
2022/05/20 00:18:16;;;;;;;13.35;9.30;;;;;;;14.55;100.00;97127.41;5043574;28;20028;-76
2022/05/20 00:20:42;;;;;;;13.43;8.73;;;;;;;14.40;100.00;97122.72;5044112;28;20036;-74
2022/05/20 00:23:08;;;;;;;13.55;8.80;;;;;;;14.30;100.00;97133.38;5049275;28;20263;-76
2022/05/20 00:25:46;;;;;;;11.73;8.80;;;;;;;14.20;100.00;97135.97;5046834;28;20121;-75
2022/05/20 00:28:14;;;;;;;14.73;8.77;;;;;;;14.35;100.00;97138.00;5046857;28;20524;-73
2022/05/20 00:30:41;;;;;;;13.60;9.52;;;;;;;14.41;100.00;97128.91;5049933;28;20046;-75
2022/05/20 00:33:07;;;;;;;14.43;8.68;;;;;;;14.25;100.00;97124.47;5057129;28;20044;-72
2022/05/20 00:35:32;;;;;;;18.05;8.68;;;;;;;13.99;100.00;97118.00;5054113;28;20036;-75
2022/05/20 00:37:58;;;;;;;15.30;8.73;;;;;;;13.81;100.00;97114.59;5049241;28;20424;-72
2022/05/20 00:40:25;;;;;;;16.35;8.90;;;;;;;13.77;100.00;97113.47;5063580;28;20128;-73
2022/05/20 00:42:51;;;;;;;12.13;7.88;;;;;;;13.79;100.00;97119.44;5048408;28;20041;-72
2022/05/20 00:45:18;;;;;;;15.00;7.70;;;;;;;13.92;100.00;97120.91;5048285;28;20515;-75
2022/05/20 00:47:43;;;;;;;14.63;8.38;;;;;;;13.93;100.00;97131.44;5050495;28;20044;-73
2022/05/20 00:50:15;;;;;;;16.40;9.18;;;;;;;14.00;100.00;97125.81;5049583;28;20033;-73
2022/05/20 00:52:45;;;;;;;14.52;8.57;;;;;;;14.15;100.00;97112.50;5049246;28;20063;-75
2022/05/20 00:55:14;;;;;;;11.20;7.57;;;;;;;14.34;100.00;97104.88;5049482;28;20736;-74
2022/05/20 00:57:45;;;;;;;14.38;8.50;;;;;;;14.49;100.00;97123.09;5050445;28;20146;-73
2022/05/20 01:00:17;;;;;;;14.23;8.32;;;;;;;14.45;100.00;97127.31;5048885;28;20109;-74
2022/05/20 01:02:43;;;;;;;10.98;6.95;;;;;;;14.36;100.00;97123.47;5055730;28;20051;-74
2022/05/20 01:05:21;;;;;;;12.80;7.63;;;;;;;14.48;100.00;97124.16;5048024;28;20634;-74
2022/05/20 01:07:47;;;;;;;12.95;8.82;;;;;;;14.53;100.00;97115.28;5053303;28;20044;-72
2022/05/20 01:10:13;;;;;;;18.35;8.93;;;;;;;14.63;100.00;97118.06;5047917;28;20043;-74
2022/05/20 01:12:38;;;;;;;17.05;9.80;;;;;;;14.33;100.00;97115.91;5048231;28;20391;-72
2022/05/20 01:15:05;;;;;;;16.27;10.00;;;;;;;14.45;100.00;97124.63;5046734;28;20123;-72
2022/05/20 01:17:31;;;;;;;15.55;10.05;;;;;;;14.66;100.00;97129.13;5054496;28;20044;-75
2022/05/20 01:19:57;;;;;;;18.23;8.77;;;;;;;14.70;100.00;97127.53;5049770;28;20052;-69
2022/05/20 01:22:48;;;;;;;14.48;9.52;;;;;;;14.73;100.00;97121.66;5046441;28;20040;-73
2022/05/20 01:25:13;;;;;;;20.57;10.93;;;;;;;14.83;100.00;97115.50;5049334;28;20132;-73
2022/05/20 01:27:42;;;;;;;16.92;10.27;;;;;;;14.89;100.00;97108.28;5049060;28;20312;-73
2022/05/20 01:30:11;;;;;;;18.85;10.10;;;;;;;14.73;100.00;97097.41;5046422;28;20502;-73
2022/05/20 01:32:37;;;;;;;19.95;10.55;;;;;;;14.60;100.00;97103.22;5045533;28;20121;-71
2022/05/20 01:35:05;;;;;;;13.75;9.93;;;;;;;14.53;100.00;97097.25;5045052;28;20111;-75
2022/05/20 01:37:31;;;;;;;16.52;10.63;;;;;;;14.65;100.00;97099.78;5047392;28;20040;-71
2022/05/20 01:40:00;;;;;;;15.32;10.80;;;;;;;14.84;100.00;97094.78;5046487;28;20154;-71
2022/05/20 01:42:32;;;;;;;14.80;10.15;;;;;;;14.95;100.00;97094.59;5045707;28;20060;-72
2022/05/20 01:45:11;;;;;;;15.40;9.90;;;;;;;15.05;100.00;97085.75;5049554;28;20475;-73
2022/05/20 01:47:47;;;;;;;15.02;10.07;;;;;;;15.14;100.00;97097.63;5050897;28;20065;-71
2022/05/20 01:50:20;;;;;;;17.38;10.50;;;;;;;15.19;100.00;97097.69;5047209;28;20530;-71
2022/05/20 01:52:59;;;;;;;16.42;9.98;;;;;;;15.13;100.00;97090.63;5048572;28;20144;-72
2022/05/20 01:55:33;;;;;;;15.32;10.30;;;;;;;15.13;100.00;97092.53;5048539;28;20163;-73
2022/05/20 01:58:11;;;;;;;16.83;10.25;;;;;;;15.09;100.00;97099.50;5046347;28;20047;-72
2022/05/20 02:00:39;;;;;;;19.88;11.38;;;;;;;15.05;100.00;97101.91;5047219;28;20155;-71
2022/05/20 02:03:23;;;;;;;17.98;10.88;;;;;;;15.11;100.00;97087.41;5046905;28;20048;-73
2022/05/20 02:05:54;;;;;;;20.05;11.85;;;;;;;15.05;100.00;97093.81;5046553;28;20046;-72
2022/05/20 02:08:25;;;;;;;18.85;10.70;;;;;;;15.00;100.00;97093.78;5053146;28;20140;-76
2022/05/20 02:10:57;;;;;;;18.88;11.20;;;;;;;14.87;100.00;97086.19;5047418;28;20033;-73
2022/05/20 02:13:27;;;;;;;17.95;10.30;;;;;;;14.83;100.00;97087.75;5050070;28;20072;-72
2022/05/20 02:16:00;;;;;;;16.33;10.97;;;;;;;14.67;100.00;97095.75;5046837;28;20032;-71
2022/05/20 02:18:44;;;;;;;18.10;11.25;;;;;;;14.63;100.00;97091.97;5048275;28;20340;-72
2022/05/20 02:21:14;;;;;;;17.50;11.40;;;;;;;14.63;100.00;97093.81;5045075;28;20043;-73
2022/05/20 02:23:46;;;;;;;22.25;12.80;;;;;;;14.62;100.00;97101.09;5045834;28;20859;-75
2022/05/20 02:26:19;;;;;;;22.90;12.55;;;;;;;14.59;100.00;97085.44;5050125;28;20307;-72
2022/05/20 02:28:58;;;;;;;27.17;12.38;;;;;;;14.58;100.00;97091.91;5049199;28;20450;-72
2022/05/20 02:31:41;;;;;;;20.52;13.07;;;;;;;14.61;100.00;97094.06;5046586;28;20539;-72
2022/05/20 02:34:07;;;;;;;25.25;13.73;;;;;;;14.54;100.00;97098.88;5046068;28;20095;-71
2022/05/20 02:36:34;;;;;;;23.00;14.13;;;;;;;14.49;100.00;97105.03;5044478;28;20512;-71
2022/05/20 02:39:02;;;;;;;18.00;12.95;;;;;;;14.63;100.00;97113.50;5047281;28;20045;-73
2022/05/20 02:41:29;;;;;;;20.73;13.18;;;;;;;14.81;100.00;97114.16;5047307;28;20033;-72
2022/05/20 02:43:57;;;;;;;19.88;11.60;;;;;;;14.82;100.00;97113.09;5047197;28;20344;-74
2022/05/20 02:46:22;;;;;;;21.50;12.68;;;;;;;14.82;100.00;97102.31;5045788;28;20716;-72
2022/05/20 02:48:48;;;;;;;18.20;12.60;;;;;;;14.63;100.00;97113.50;5045783;28;20513;-73
2022/05/20 02:51:16;;;;;;;18.38;12.73;;;;;;;14.66;100.00;97106.78;5044334;28;20335;-70
2022/05/20 02:53:44;;;;;;;21.38;13.93;;;;;;;14.43;100.00;97100.66;5046852;28;20235;-73
2022/05/20 02:56:09;;;;;;;21.27;13.38;;;;;;;14.43;100.00;97097.16;5045149;28;20122;-70
2022/05/20 03:04:10;;;;;;;19.67;11.90;;;;;;;14.38;100.00;97103.28;5045419;28;20041;-71
2022/05/20 03:06:54;;;;;;;16.40;10.65;;;;;;;14.37;100.00;97104.38;5043719;28;20043;-72
2022/05/20 03:09:23;;;;;;;24.00;11.00;;;;;;;14.37;100.00;97093.59;5043111;28;20047;-74
2022/05/20 03:11:49;;;;;;;20.92;11.63;;;;;;;14.23;100.00;97103.97;5045914;28;20661;-72
2022/05/20 03:14:17;;;;;;;19.48;11.95;;;;;;;14.32;100.00;97098.13;5045025;28;20283;-72
2022/05/20 03:16:43;;;;;;;25.35;13.02;;;;;;;14.39;100.00;97085.25;5045345;28;20068;-70
2022/05/20 03:19:10;;;;;;;25.98;15.48;;;;;;;14.34;100.00;97082.53;5045098;28;20136;-71
2022/05/20 03:21:37;;;;;;;23.02;13.07;;;;;;;14.38;100.00;97078.25;5045969;28;20048;-71
2022/05/20 03:24:05;;;;;;;21.27;13.57;;;;;;;14.52;100.00;97079.47;5045888;28;20049;-74
2022/05/20 03:26:31;;;;;;;24.00;14.13;;;;;;;14.67;100.00;97086.84;5050680;28;20152;-74
2022/05/20 03:29:02;;;;;;;27.75;14.45;;;;;;;14.74;100.00;97085.56;5045361;28;20124;-71
2022/05/20 03:31:28;;;;;;;23.23;13.82;;;;;;;14.79;100.00;97071.31;5045925;28;20041;-72
2022/05/20 03:33:54;;;;;;;21.08;14.30;;;;;;;14.82;100.00;97072.69;5043521;28;20613;-74
2022/05/20 03:36:21;;;;;;;25.20;14.68;;;;;;;14.92;100.00;97064.63;5047285;28;20028;-72
2022/05/20 03:38:47;;;;;;;21.80;13.77;;;;;;;14.89;100.00;97073.25;5046988;28;20463;-72
2022/05/20 03:41:13;;;;;;;30.13;14.65;;;;;;;14.78;100.00;97075.06;5045368;28;20496;-73
2022/05/20 03:43:39;;;;;;;23.45;14.02;;;;;;;14.73;100.00;97069.66;5047495;28;20055;-73
2022/05/20 03:46:05;;;;;;;21.90;14.50;;;;;;;14.54;100.00;97085.41;5045066;28;20147;-72
2022/05/20 03:48:30;;;;;;;24.63;16.70;;;;;;;14.52;100.00;97094.81;5047815;28;20056;-75
2022/05/20 03:50:56;;;;;;;28.33;15.73;;;;;;;14.62;100.00;97100.28;5045520;28;20128;-75
2022/05/20 03:53:21;;;;;;;23.48;15.32;;;;;;;14.59;100.00;97093.53;5045137;28;21689;-71
2022/05/20 03:55:47;;;;;;;27.77;16.60;;;;;;;14.61;100.00;97095.97;5050835;28;20080;-71
2022/05/20 03:58:12;;;;;;;24.13;16.35;;;;;;;14.66;100.00;97079.84;5047581;28;20547;-72
2022/05/20 04:03:24;;;;;;;26.95;16.77;;;;;;;14.56;100.00;97066.31;5049719;28;20060;-71
2022/05/20 04:05:54;;;;;;;23.65;15.77;;;;;;;14.43;100.00;97062.16;5050016;28;20099;-74
2022/05/20 04:08:19;;;;;;;27.85;15.98;;;;;;;14.51;100.00;97061.69;5048937;28;20037;-74
2022/05/20 04:10:45;;;;;;;27.42;16.23;;;;;;;14.45;100.00;97057.31;5049307;28;20086;-72
2022/05/20 04:13:11;;;;;;;25.35;16.38;;;;;;;14.40;100.00;97070.75;5049443;28;20036;-72
2022/05/20 04:15:36;;;;;;;24.50;16.38;;;;;;;14.51;100.00;97077.03;5049881;28;20045;-75
2022/05/20 04:18:02;;;;;;;26.55;15.75;;;;;;;14.53;100.00;97077.59;5048392;28;20123;-71
2022/05/20 04:20:28;;;;;;;27.20;16.13;;;;;;;14.64;100.00;97060.44;5048555;28;20048;-72
2022/05/20 04:22:53;;;;;;;23.95;15.20;;;;;;;14.64;100.00;97055.06;5051347;28;20044;-74
2022/05/20 04:25:19;;;;;;;26.90;15.60;;;;;;;14.56;100.00;97060.94;5045394;28;20032;-74
2022/05/20 04:27:44;;;;;;;28.50;16.42;;;;;;;14.52;100.00;97066.00;5049841;28;20135;-72
2022/05/20 04:30:10;;;;;;;31.23;17.15;;;;;;;14.51;100.00;97072.47;5051047;28;20555;-72
2022/05/20 04:32:36;;;;;;;29.67;16.33;;;;;;;14.55;100.00;97067.38;5049800;28;20128;-72
2022/05/20 04:35:01;;;;;;;27.83;15.93;;;;;;;14.66;100.00;97053.72;5049143;28;20041;-71
2022/05/20 04:37:27;;;;;;;27.88;16.98;;;;;;;14.70;100.00;97044.03;5046758;28;20036;-73
2022/05/20 04:39:53;;;;;;;22.38;15.38;;;;;;;14.67;100.00;97060.72;5047415;28;20075;-72
2022/05/20 04:47:48;;;;;;;28.23;17.35;;;;;;;14.73;100.00;97077.75;5045828;28;20037;-74
2022/05/20 04:50:14;;;;;;;31.83;17.42;;;;;;;14.74;100.00;97073.97;5047299;28;20059;-71
2022/05/20 04:52:39;;;;;;;28.38;17.33;;;;;;;14.92;100.00;97083.50;5046687;28;20047;-73
2022/05/20 04:55:06;;;;;;;28.77;17.63;;;;;;;14.86;100.00;97084.53;5048890;28;20043;-70
2022/05/20 04:57:46;;;;;;;27.58;16.63;;;;;;;14.83;100.00;97076.97;5049615;28;20033;-72
2022/05/20 05:00:17;;;;;;;31.10;17.77;;;;;;;14.79;100.00;97084.78;5047892;28;20141;-71
2022/05/20 05:02:44;;;;;;;30.90;16.63;;;;;;;14.75;100.00;97084.47;5046355;28;20094;-73
2022/05/20 05:05:12;;;;;;;28.60;17.67;;;;;;;14.82;100.00;97084.25;5047954;28;20705;-72
2022/05/20 05:07:40;;;;;;;27.27;16.73;;;;;;;14.68;100.00;97078.50;5050013;28;20127;-73
2022/05/20 05:10:07;;;;;;;30.17;18.30;;;;;;;14.67;100.00;97084.16;5048471;28;20322;-71
2022/05/20 05:12:32;;;;;;;29.77;17.20;;;;;;;14.71;100.00;97090.66;5047363;28;20494;-71
2022/05/20 05:14:59;;;;;;;27.75;17.33;;;;;;;14.73;100.00;97093.91;5047655;28;20120;-75
2022/05/20 05:20:18;;;;;;;29.15;16.85;;;;;;;14.90;100.00;97086.47;5048478;28;20126;-72
2022/05/20 05:22:44;;;;;;;27.42;16.58;;;;;;;15.09;100.00;97067.16;5051735;28;20068;-74
2022/05/20 05:25:12;;;;;;;26.70;16.00;;;;;;;15.20;100.00;97056.16;5045532;28;20112;-72
2022/05/20 05:27:38;;;;;;;27.35;15.73;;;;;;;15.27;100.00;97048.66;5046755;28;20088;-74
2022/05/20 05:30:04;;;;;;;29.92;17.42;;;;;;;15.33;100.00;97023.34;5047326;28;20605;-75
2022/05/20 05:32:30;;;;;;;31.27;16.83;;;;;;;15.19;100.00;97024.91;5045513;28;20053;-72
2022/05/20 05:34:55;;;;;;;35.13;17.38;;;;;;;15.36;100.00;97019.28;5049941;28;20458;-72
2022/05/20 05:37:21;;;;;;;24.75;16.85;;;;;;;15.40;100.00;97001.47;5047510;28;20044;-71
2022/05/20 05:39:46;;;;;;;31.73;16.70;;;;;;;15.31;100.00;97006.59;5047465;28;20072;-74
2022/05/20 05:42:12;;;;;;;33.85;17.35;;;;;;;15.32;100.00;97002.81;5049184;28;20042;-71
2022/05/20 05:44:38;;;;;;;27.27;17.50;;;;;;;15.43;100.00;96989.38;5052129;28;20037;-76
2022/05/20 05:47:04;;;;;;;28.52;17.20;;;;;;;15.45;100.00;97006.91;5049837;28;20047;-74
2022/05/20 05:49:30;;;;;;;31.42;18.58;;;;;;;15.44;100.00;97034.13;5049646;28;20037;-72
2022/05/20 05:51:56;;;;;;;30.60;18.77;;;;;;;15.48;100.00;97052.19;5048686;28;20048;-70
2022/05/20 05:54:22;;;;;;;37.70;18.88;;;;;;;15.66;100.00;97044.75;5046795;28;20887;-73
2022/05/20 05:56:49;;;;;;;32.03;19.17;;;;;;;15.56;100.00;97042.78;5050187;28;20424;-72
2022/05/20 05:59:14;;;;;;;33.95;18.08;;;;;;;15.54;100.00;97031.47;5048210;28;20029;-72
2022/05/20 06:01:40;;;;;;;33.92;19.45;;;;;;;15.67;100.00;97047.19;5049369;28;20041;-74
2022/05/20 06:04:05;;;;;;;35.40;20.10;;;;;;;15.98;100.00;97039.13;5045779;28;20047;-74
2022/05/20 06:06:30;;;;;;;33.42;20.38;;;;;;;16.24;100.00;97035.34;5045788;28;20119;-71
2022/05/20 06:08:56;;;;;;;33.80;20.55;;;;;;;16.58;100.00;97014.00;5046506;28;20052;-73
2022/05/20 06:11:22;;;;;;;37.58;20.88;;;;;;;17.10;100.00;97025.50;5046979;28;22178;-70
2022/05/20 06:13:47;;;;;;;35.40;20.10;;;;;;;17.37;100.00;97036.75;5048304;28;20044;-74
2022/05/20 06:16:21;;;;;;;37.28;21.92;;;;;;;17.46;100.00;97028.84;5049173;28;20080;-72
2022/05/20 06:18:50;;;;;;;39.05;20.40;;;;;;;17.46;100.00;97026.97;5047208;28;20325;-71
2022/05/20 06:21:16;;;;;;;32.78;20.08;;;;;;;17.47;100.00;97015.03;5047167;28;20354;-72
2022/05/20 06:23:41;;;;;;;34.70;20.48;;;;;;;17.34;100.00;97004.81;5047871;28;20047;-72
2022/05/20 06:26:07;;;;;;;36.40;20.50;;;;;;;17.27;100.00;97004.31;5047440;28;20041;-74
2022/05/20 06:28:32;;;;;;;38.05;21.92;;;;;;;17.13;100.00;97003.31;5046915;28;20596;-73
2022/05/20 06:30:58;;;;;;;39.15;22.58;;;;;;;17.04;100.00;96997.66;5047014;28;20487;-71
2022/05/20 06:33:24;;;;;;;42.80;22.77;;;;;;;16.82;100.00;97008.84;5046915;28;20040;-75
2022/05/20 06:41:22;;;;;;;36.13;22.35;;;;;;;16.71;100.00;96999.94;5047891;28;20535;-70
2022/05/20 06:43:48;;;;;;;41.92;21.60;;;;;;;16.41;100.00;96998.06;5047923;28;20043;-72
2022/05/20 06:46:14;;;;;;;40.28;22.48;;;;;;;16.12;100.00;97005.13;5045858;28;20036;-73
2022/05/20 06:48:48;;;;;;;49.45;25.13;;;;;;;16.17;100.00;97015.91;5044759;28;20047;-75
2022/05/20 06:51:18;;;;;;;46.88;25.88;;;;;;;16.21;100.00;97008.91;5043566;28;20565;-75
2022/05/20 06:53:44;;;;;;;44.47;24.98;;;;;;;16.27;100.00;97010.53;5046869;28;20435;-71
2022/05/20 06:56:10;;;;;;;36.58;20.88;;;;;;;16.34;100.00;97010.22;5045342;28;20055;-71
2022/05/20 06:58:36;;;;;;;44.03;25.00;;;;;;;16.49;100.00;97009.41;5045059;28;20039;-74
2022/05/20 07:01:03;;;;;;;51.42;26.40;;;;;;;16.64;100.00;97014.78;5043331;28;20048;-71
2022/05/20 07:03:28;;;;;;;52.72;27.13;;;;;;;17.04;100.00;97013.88;5044581;28;20388;-73
2022/05/20 07:05:54;;;;;;;42.22;24.63;;;;;;;17.78;100.00;97013.00;5044379;28;20044;-74
2022/05/20 07:08:20;;;;;;;51.38;26.92;;;;;;;18.19;100.00;97009.16;5046656;28;20032;-71
2022/05/20 07:10:46;;;;;;;45.63;23.52;;;;;;;18.45;100.00;97012.47;5048504;28;20078;-74
2022/05/20 07:13:12;;;;;;;47.30;24.50;;;;;;;18.61;100.00;97001.19;5043828;28;20403;-71
2022/05/20 07:15:37;;;;;;;45.65;24.40;;;;;;;18.76;100.00;96985.91;5042776;28;20466;-74
2022/05/20 07:18:03;;;;;;;45.47;25.10;;;;;;;18.70;100.00;96987.06;5046775;28;20036;-72
2022/05/20 07:20:29;;;;;;;46.03;24.17;;;;;;;18.61;100.00;96987.66;5064877;28;20531;-72
2022/05/20 07:22:54;;;;;;;46.63;23.27;;;;;;;18.61;100.00;96984.94;5046564;28;20040;-70
2022/05/20 07:25:19;;;;;;;39.78;20.23;;;;;;;18.22;100.00;96984.25;5046550;28;20044;-70
2022/05/20 07:27:46;;;;;;;48.38;25.20;;;;;;;18.19;100.00;96988.31;5046453;28;20109;-73
2022/05/20 07:30:13;;;;;;;48.80;25.88;;;;;;;18.02;100.00;96983.31;5047894;28;20111;-74
2022/05/20 07:32:42;;;;;;;45.30;23.50;;;;;;;18.02;100.00;96983.31;5048012;28;20040;-73
2022/05/20 07:35:09;;;;;;;48.67;24.52;;;;;;;18.30;100.00;96972.78;5046248;28;20055;-72
2022/05/20 07:37:35;;;;;;;47.10;25.05;;;;;;;18.42;100.00;96973.19;5049096;28;20535;-73
2022/05/20 07:40:01;;;;;;;40.10;21.95;;;;;;;18.32;100.00;96967.88;5050702;28;20044;-71
2022/05/20 07:42:27;;;;;;;44.95;22.30;;;;;;;18.19;100.00;96976.66;5049017;28;20048;-70
2022/05/20 07:44:52;;;;;;;41.45;23.73;;;;;;;18.47;100.00;96975.88;5047783;28;20063;-71
2022/05/20 07:47:19;;;;;;;43.50;22.90;;;;;;;18.87;100.00;96976.56;5054642;28;20346;-70
2022/05/20 07:49:44;;;;;;;41.78;23.13;;;;;;;18.91;100.00;96972.19;5048946;28;20044;-73
2022/05/20 07:52:13;;;;;;;44.28;23.00;;;;;;;18.70;100.00;96963.47;5049829;28;20630;-72
2022/05/20 07:54:44;;;;;;;45.85;22.88;;;;;;;19.05;100.00;96961.41;5051565;28;20036;-73
2022/05/20 07:57:14;;;;;;;43.97;22.95;;;;;;;18.82;100.00;96957.63;5049572;28;20146;-73
2022/05/20 07:59:45;;;;;;;38.40;20.50;;;;;;;19.08;100.00;96956.25;5048920;28;20413;-74
2022/05/20 08:02:13;;;;;;;32.47;18.52;;;;;;;18.90;100.00;96943.44;5049088;28;20036;-72
2022/05/20 08:05:01;;;;;;;32.33;19.25;;;;;;;19.03;100.00;96947.34;5049398;28;20307;-70
2022/05/20 08:07:55;;;;;;;31.17;17.73;;;;;;;19.30;100.00;96946.72;5044688;28;20044;-70
2022/05/20 08:10:22;;;;;;;37.03;17.65;;;;;;;19.32;100.00;96939.09;5037725;28;20228;-73
2022/05/20 08:12:49;;;;;;;27.92;15.65;;;;;;;19.61;100.00;96931.66;5046815;28;20098;-75
2022/05/20 08:15:16;;;;;;;33.42;16.55;;;;;;;19.61;100.00;96937.09;5046159;28;20052;-73
2022/05/20 08:17:43;;;;;;;32.00;16.40;;;;;;;19.78;100.00;96925.69;5049199;28;20040;-70
2022/05/20 08:20:21;;;;;;;26.83;15.60;;;;;;;19.45;100.00;96913.94;5046012;28;20032;-74
2022/05/20 08:22:47;;;;;;;20.70;11.57;;;;;;;19.48;100.00;96916.06;5048500;28;20064;-74
2022/05/20 08:25:13;;;;;;;23.33;12.95;;;;;;;19.60;100.00;96913.72;5046578;28;20040;-73
2022/05/20 08:27:38;;;;;;;22.58;13.63;;;;;;;19.56;100.00;96917.31;5046464;28;20438;-74
2022/05/20 08:30:19;;;;;;;23.55;12.68;;;;;;;19.67;100.00;96918.78;5045965;28;20079;-72
2022/05/20 08:32:45;;;;;;;25.38;13.65;;;;;;;19.43;100.00;96916.94;5047034;28;20049;-73
2022/05/20 08:35:11;;;;;;;25.20;13.13;;;;;;;19.55;100.00;96916.50;5047748;28;20405;-72
2022/05/20 08:37:39;;;;;;;25.92;13.65;;;;;;;19.94;100.00;96921.63;5050166;28;20044;-71
2022/05/20 08:40:08;;;;;;;23.10;13.13;;;;;;;20.02;100.00;96914.69;5048411;28;20111;-75
2022/05/20 08:42:33;;;;;;;28.38;14.98;;;;;;;19.97;100.00;96912.06;5049444;28;20521;-72
2022/05/20 08:45:02;;;;;;;27.05;14.93;;;;;;;20.18;100.00;96897.03;5046364;28;20045;-74
2022/05/20 08:47:42;;;;;;;25.08;13.55;;;;;;;20.04;100.00;96898.91;5049817;28;20041;-75
2022/05/20 08:50:14;;;;;;;24.15;12.95;;;;;;;20.03;100.00;96900.00;5048777;28;20381;-73
2022/05/20 08:52:41;;;;;;;19.77;12.70;;;;;;;20.49;100.00;96904.66;5050444;28;20342;-71
2022/05/20 08:55:08;;;;;;;19.58;10.45;;;;;;;20.51;100.00;96899.72;5046485;28;20071;-72
2022/05/20 08:57:33;;;;;;;19.98;10.77;;;;;;;20.40;100.00;96904.50;5049507;28;20040;-73
2022/05/20 09:00:01;;;;;;;20.35;10.73;;;;;;;20.20;100.00;96894.81;5049680;28;20043;-77
2022/05/20 09:02:27;;;;;;;15.82;9.68;;;;;;;20.15;100.00;96894.88;5017361;28;20498;-71
2022/05/20 09:04:52;;;;;;;17.52;9.57;;;;;;;20.39;100.00;96886.59;5049167;28;20036;-73
2022/05/20 09:07:23;;;;;;;19.98;11.95;;;;;;;20.22;100.00;96889.88;5046163;28;20044;-72
2022/05/20 09:09:56;;;;;;;13.80;9.60;;;;;;;20.35;100.00;96880.13;5047130;28;20496;-72
2022/05/20 09:12:42;;;;;;;17.08;11.00;;;;;;;20.34;100.00;96875.00;5048077;28;21471;-73
2022/05/20 09:18:05;;;;;;;21.60;12.00;;;;;;;20.16;100.00;96871.28;5056557;28;20033;-72
2022/05/20 09:20:30;;;;;;;16.75;9.63;;;;;;;20.84;100.00;96848.72;5047504;28;20535;-75
2022/05/20 09:23:06;;;;;;;18.85;11.77;;;;;;;20.87;100.00;96845.41;5047933;28;20047;-71
2022/05/20 09:25:36;;;;;;;20.90;11.43;;;;;;;21.59;100.00;96852.78;5048398;28;20052;-72
2022/05/20 09:28:22;;;;;;;19.35;12.10;;;;;;;21.62;100.00;96844.78;5049698;28;20045;-73
2022/05/20 09:30:51;;;;;;;15.55;8.25;;;;;;;21.59;100.00;96845.41;5047378;28;20507;-75
2022/05/20 09:33:27;;;;;;;20.17;9.82;;;;;;;20.98;100.00;96840.53;5047469;28;20067;-74
2022/05/20 09:35:58;;;;;;;18.10;8.63;;;;;;;20.90;100.00;96836.63;5048021;28;20470;-77
2022/05/20 09:38:31;;;;;;;19.17;9.18;;;;;;;20.54;100.00;96839.28;5046728;28;20112;-71
2022/05/20 09:40:57;;;;;;;18.42;10.20;;;;;;;20.55;100.00;96840.94;5046751;28;20045;-74
2022/05/20 09:43:35;;;;;;;18.10;10.25;;;;;;;20.86;100.00;96836.47;5045695;28;20075;-74
2022/05/20 09:46:01;;;;;;;21.30;10.82;;;;;;;21.31;100.00;96844.69;5046213;28;20048;-73
2022/05/20 09:48:51;;;;;;;16.80;9.40;;;;;;;20.98;100.00;96833.19;5043865;28;20068;-72
2022/05/20 09:51:23;;;;;;;22.70;10.70;;;;;;;21.30;100.00;96831.41;5042285;28;20040;-74
2022/05/20 09:54:02;;;;;;;19.73;9.93;;;;;;;21.25;100.00;96820.63;5049897;28;20272;-72
2022/05/20 09:56:31;;;;;;;19.02;9.50;;;;;;;21.62;100.00;96817.53;5050615;28;20314;-73
2022/05/20 09:59:31;;;;;;;19.50;11.02;;;;;;;22.16;100.00;96802.00;5047852;28;20046;-75
2022/05/20 10:02:04;;;;;;;20.65;10.60;;;;;;;22.64;100.00;96814.00;5048731;28;20068;-71
2022/05/20 10:04:39;;;;;;;19.33;10.65;;;;;;;22.87;100.00;96809.28;5046877;28;20037;-75
2022/05/20 10:07:13;;;;;;;21.60;11.57;;;;;;;22.35;100.00;96809.13;5048564;28;20041;-71
2022/05/20 10:09:47;;;;;;;19.75;11.63;;;;;;;22.52;100.00;96796.34;5048965;28;20104;-76
2022/05/20 10:12:32;;;;;;;19.25;10.27;;;;;;;22.36;100.00;96806.09;5047931;28;20119;-72
2022/05/20 10:15:04;;;;;;;20.15;11.60;;;;;;;22.03;100.00;96800.16;5051064;28;20407;-73
2022/05/20 10:17:49;;;;;;;21.08;11.43;;;;;;;22.12;100.00;96800.22;5046659;28;20553;-75
2022/05/20 10:20:22;;;;;;;19.40;12.30;;;;;;;22.68;100.00;96802.16;5047119;28;20055;-73
2022/05/20 10:23:09;;;;;;;17.73;11.25;;;;;;;22.62;100.00;96803.44;5047278;28;20147;-72
2022/05/20 10:26:08;;;;;;;18.35;10.70;;;;;;;23.28;100.00;96795.19;5047575;28;20138;-72
2022/05/20 10:34:16;;;;;;;18.98;10.30;;;;;;;23.12;100.00;96780.44;5045295;28;20403;-74
2022/05/20 10:37:00;;;;;;;18.35;9.93;;;;;;;23.16;100.00;96767.72;5045330;28;20036;-71
2022/05/20 10:39:54;;;;;;;17.61;9.66;;;;;;;23.13;100.00;96763.72;4646346;28;10000800;-74
2022/05/20 10:42:41;;;;;;;17.95;9.90;;;;;;;23.15;100.00;96755.22;5044256;28;20799;-72
2022/05/20 10:48:42;;;;;;;17.63;10.45;;;;;;;23.53;100.00;96756.13;5043374;28;20111;-72
2022/05/20 10:51:32;;;;;;;20.95;11.15;;;;;;;23.85;100.00;96743.03;5044370;28;20407;-72
2022/05/20 10:54:26;;;;;;;16.27;9.90;;;;;;;24.03;100.00;96739.09;5044338;28;20094;-73
2022/05/20 10:57:16;;;;;;;16.67;8.93;;;;;;;23.54;100.00;96711.28;5044560;28;20040;-71
2022/05/20 11:00:03;;;;;;;18.90;9.70;;;;;;;24.24;100.00;96719.25;5046993;28;20040;-72
2022/05/20 11:02:47;;;;;;;17.50;9.52;;;;;;;25.64;100.00;96702.19;5043253;28;20482;-73
2022/05/20 11:05:24;;;;;;;18.63;9.60;;;;;;;25.49;100.00;96694.59;5044842;28;20036;-71
2022/05/20 11:08:22;;;;;;;15.55;9.48;;;;;;;25.42;100.00;96681.47;5043842;28;20498;-73
2022/05/20 11:11:03;;;;;;;18.73;9.55;;;;;;;24.45;100.00;96666.22;5021350;28;20159;-76
2022/05/20 11:13:47;;;;;;;11.55;8.30;;;;;;;23.54;100.00;96683.19;5045321;28;20041;-72
2022/05/20 11:16:59;;;;;;;18.90;10.35;;;;;;;22.90;100.00;96677.72;5032598;28;20097;-75
2022/05/20 11:19:47;;;;;;;27.25;9.07;;;;;;;22.62;100.00;96683.44;5039232;28;20057;-74
2022/05/20 11:22:29;;;;;;;20.00;10.18;;;;;;;22.73;100.00;96683.94;5042893;28;20112;-76
2022/05/20 11:25:19;;;;;;;22.77;10.90;;;;;;;22.23;100.00;96685.16;5043156;28;20492;-71
2022/05/20 11:28:13;;;;;;;18.47;10.90;;;;;;;22.11;100.00;96676.81;5044670;28;20059;-75
2022/05/20 11:31:00;;;;;;;22.10;10.48;;;;;;;22.18;100.00;96679.88;5043442;28;20289;-74
2022/05/20 11:33:36;;;;;;;19.80;11.73;;;;;;;22.16;100.00;96675.84;5046437;28;20130;-71
2022/05/20 11:36:18;;;;;;;21.73;10.60;;;;;;;22.26;100.00;96659.22;5044865;28;20091;-73
2022/05/20 11:39:15;;;;;;;18.65;11.75;;;;;;;22.09;100.00;96640.88;5045151;28;20086;-74
2022/05/20 11:41:55;;;;;;;14.75;8.60;;;;;;;21.78;100.00;96627.31;5045315;28;20398;-73
2022/05/20 11:44:40;;;;;;;19.23;11.88;;;;;;;21.82;100.00;96639.19;5043267;28;20446;-75
2022/05/20 11:47:25;;;;;;;24.08;12.65;;;;;;;21.85;100.00;96652.19;5044349;28;20372;-74
2022/05/20 11:50:32;;;;;;;19.20;11.48;;;;;;;21.79;100.00;96658.91;5045103;28;20340;-74
2022/05/20 11:53:01;;;;;;;20.52;11.98;;;;;;;21.43;100.00;96672.69;5045839;28;20037;-73
2022/05/20 11:55:36;;;;;;;22.88;12.02;;;;;;;21.36;100.00;96692.19;5044954;28;20714;-73
2022/05/20 11:58:05;;;;;;;19.58;11.55;;;;;;;21.25;100.00;96709.88;5046048;28;20451;-73
2022/05/20 12:00:35;;;;;;;19.95;12.02;;;;;;;21.01;100.00;96715.63;5043503;28;20146;-72
2022/05/20 12:03:07;;;;;;;20.88;12.77;;;;;;;21.13;100.00;96706.91;5046340;28;20064;-74